Data for 08/10/2015

Time Sea-Level Adjusted Pressure Absolute Pressure Temperature Relative Humidity Dew Point   
(mb) (inHg) (mb) (inHg) (C) (F) (%) (C) (F)
00:05 1023 30.21 853 25.19 15.2 59.3 52 5.5 41.9
00:10 1023 30.21 853 25.19 15.2 59.4 52 5.6 42
00:15 1023 30.21 853 25.19 15.3 59.5 51 5.3 41.6
00:20 1023 30.21 853 25.19 15.3 59.6 51 5.4 41.8
00:25 1023 30.21 853 25.19 15.2 59.4 52 5.5 41.8
00:30 1023 30.21 853 25.19 15.1 59.2 57 6.7 44
00:35 1023 30.21 853 25.19 15 59 53 5.6 42.1
00:40 1023 30.21 853 25.19 14.8 58.7 52 5.1 41.2
00:45 1023 30.21 853 25.19 15.3 59.5 49 4.8 40.7
00:50 1023 30.21 853 25.19 15.7 60.3 48 4.7 40.5
00:55 1023 30.21 853 25.19 16.1 61 46 4.5 40.2
01:00 1023 30.21 853 25.19 16.5 61.7 44 4.4 39.9
01:05 1023 30.21 853 25.19 16.6 61.8 46 5.1 41.2
01:10 1023 30.21 853 25.19 16.2 61.1 47 5.1 41.2
01:15 1023 30.21 853 25.19 15.7 60.3 48 4.8 40.7
01:20 1023 30.21 852 25.16 15.6 60 48 4.9 40.7
01:25 1023 30.21 852 25.16 15.2 59.4 52 5.5 41.9
01:30 1023 30.21 852 25.16 14.6 58.2 54 5.3 41.6
01:35 1023 30.21 852 25.16 14.3 57.7 55 5.4 41.7
01:40 1023 30.21 852 25.16 14.2 57.5 54 5.1 41.1
01:45 1023 30.21 852 25.16 14.4 58 56 5.9 42.6
01:50 1023 30.21 852 25.16 14.5 58.1 53 5.1 41.2
01:55 1023 30.21 852 25.16 14.4 57.8 54 5.2 41.3
02:00 1023 30.21 852 25.16 14.2 57.6 54 5 41.1
02:05 1023 30.21 852 25.16 14.4 57.9 52 4.8 40.6
02:10 1023 30.21 852 25.16 14.8 58.6 52 5 41
02:15 1023 30.21 852 25.16 14.6 58.2 52 4.9 40.8
02:20 1023 30.21 852 25.16 14.9 58.9 49 4.4 40
02:25 1023 30.21 852 25.16 15.2 59.4 52 5.4 41.8
02:30 1023 30.21 852 25.16 15 59 51 4.9 40.8
02:35 1023 30.21 852 25.16 14.8 58.6 51 4.8 40.7
02:40 1023 30.21 852 25.16 14.7 58.4 52 5 41.1
02:45 1023 30.21 852 25.16 14.4 58 53 5.1 41.1
02:50 1023 30.21 852 25.16 14.4 57.9 52 4.8 40.6
02:55 1023 30.21 852 25.16 14.5 58.1 52 4.8 40.6
03:00 1023 30.21 853 25.19 14.7 58.5 51 4.7 40.5
03:05 1023 30.21 852 25.16 14.8 58.6 51 4.9 40.8
03:10 1023 30.21 852 25.16 14.8 58.6 52 5.1 41.1
03:15 1023 30.21 853 25.19 14.3 57.8 54 5.3 41.5
03:20 1023 30.21 853 25.19 13.8 56.9 55 5.1 41.1
03:25 1023 30.21 853 25.19 13.9 57 53 4.4 40
03:30 1023 30.21 853 25.19 14.5 58.1 51 4.7 40.4
03:35 1023 30.21 853 25.19 14.7 58.4 51 4.8 40.7
03:40 1023 30.21 853 25.19 14.5 58.2 53 5.1 41.1
03:45 1023 30.21 853 25.19 14.1 57.4 54 5 41
03:50 1024 30.24 853 25.19 14.1 57.4 53 4.9 40.8
03:55 1024 30.24 853 25.19 14.2 57.6 54 5 41
04:00 1024 30.24 853 25.19 14.1 57.4 54 4.9 40.9
04:05 1024 30.24 853 25.19 14.1 57.4 54 5.1 41.2
04:10 1024 30.24 853 25.19 13.8 56.8 56 5.2 41.3
04:15 1024 30.24 853 25.19 13.3 56 58 5.3 41.5
04:20 1024 30.24 853 25.19 13.1 55.5 58 5.1 41.2
04:25 1024 30.24 853 25.19 12.9 55.2 59 5.2 41.3
04:30 1024 30.24 853 25.19 12.7 54.9 59 5 40.9
04:35 1024 30.24 853 25.19 12.8 55.1 56 4.3 39.8
04:40 1024 30.24 853 25.19 13.1 55.6 55 4.2 39.6
04:45 1024 30.24 853 25.19 13.5 56.2 53 4.2 39.6
04:50 1024 30.24 853 25.19 13.9 56.9 54 4.7 40.4
04:55 1024 30.24 853 25.19 13.8 56.8 54 4.8 40.7
05:00 1024 30.24 853 25.19 13.3 55.9 57 5.1 41.2
05:05 1024 30.24 853 25.19 12.9 55.1 57 4.7 40.4
05:10 1024 30.24 853 25.19 13.2 55.7 56 4.7 40.4
05:15 1024 30.24 853 25.19 13.2 55.7 56 4.6 40.4
05:20 1024 30.24 853 25.19 13.5 56.2 56 4.8 40.7
05:25 1024 30.24 853 25.19 13.6 56.4 53 4.3 39.8
05:30 1024 30.24 853 25.19 14 57.3 53 4.7 40.4
05:35 1024 30.24 853 25.19 13.9 57.1 53 4.6 40.3
05:40 1024 30.24 853 25.19 14 57.1 53 4.7 40.5
05:45 1024 30.24 853 25.19 14 57.2 54 4.8 40.6
05:50 1024 30.24 853 25.19 13.9 56.9 54 4.8 40.6
05:55 1024 30.24 853 25.19 13.7 56.7 56 5.2 41.3
06:00 1024 30.24 853 25.19 13.3 56 57 5 41
06:05 1024 30.24 853 25.19 13.4 56.1 57 5 41
06:10 1024 30.24 853 25.19 13.4 56.2 56 4.8 40.6
06:15 1024 30.24 853 25.19 13.8 56.9 56 5.2 41.4
06:20 1024 30.24 853 25.19 13.7 56.7 57 5.4 41.7
06:25 1024 30.24 853 25.19 13.6 56.5 57 5.3 41.5
06:30 1024 30.24 853 25.19 13.6 56.4 56 5.1 41.2
06:35 1024 30.24 853 25.19 13.8 56.9 56 5.3 41.6
06:40 1024 30.24 853 25.19 14 57.2 55 5.3 41.5
06:45 1024 30.24 853 25.19 14.4 57.9 55 5.4 41.8
06:50 1024 30.24 853 25.19 14.7 58.5 54 5.5 41.9
06:55 1024 30.24 853 25.19 14.9 58.8 53 5.4 41.7
07:00 1024 30.24 853 25.19 14.9 58.9 55 6.1 43
07:05 1024 30.24 853 25.19 15 58.9 53 5.7 42.2
07:10 1024 30.24 853 25.19 15.7 60.2 48 4.8 40.7
07:15 1024 30.24 853 25.19 16.2 61.1 49 5.5 41.9
07:20 1024 30.24 853 25.19 16.2 61.1 50 5.8 42.5
07:25 1024 30.24 853 25.19 16.5 61.8 49 6 42.7
07:30 1024 30.24 853 25.19 17 62.5 45 5 41.1
07:35 1024 30.24 853 25.19 17.2 63 45 5.3 41.6
07:40 1024 30.24 853 25.19 17.4 63.3 45 5.6 42.1
07:45 1024 30.24 853 25.19 17.7 63.8 45 5.6 42.1
07:50 1024 30.24 853 25.19 17.8 64 45 5.9 42.6
07:55 1024 30.24 853 25.19 18.4 65.2 42 5.4 41.7
08:00 1024 30.24 853 25.19 18.8 65.9 44 6.4 43.5
08:05 1024 30.24 853 25.19 19.2 66.6 43 6.4 43.6
08:10 1024 30.24 853 25.19 19.3 66.7 44 6.9 44.4
08:15 1024 30.24 853 25.19 19.9 67.8 38 5.1 41.2
08:20 1024 30.24 853 25.19 20.2 68.4 38 5.5 41.8
08:25 1024 30.24 853 25.19 20.6 69 36 5.3 41.6
08:30 1024 30.24 853 25.19 21.4 70.5 37 6.2 43.2
08:35 1024 30.24 853 25.19 22.1 71.7 35 6.2 43.1
08:40 1024 30.24 853 25.19 22.1 71.9 36 6.4 43.5
08:45 1024 30.24 853 25.19 21.6 70.8 34 5.4 41.6
08:50 1024 30.24 853 25.19 21.6 70.9 34 5.1 41.3
08:55 1024 30.24 853 25.19 21.7 71.1 35 5.9 42.6
09:00 1024 30.24 853 25.19 22 71.6 34 5.5 41.9
09:05 1024 30.24 853 25.19 22.1 71.7 36 6.4 43.5
09:10 1024 30.24 853 25.19 22.3 72.2 35 6.4 43.4
09:15 1024 30.24 853 25.19 22.9 73.1 36 7.1 44.8
09:20 1023 30.21 853 25.19 23.7 74.6 35 7.4 45.3
09:25 1024 30.24 853 25.19 23.5 74.4 35 7.2 45
09:30 1024 30.24 853 25.19 23.4 74.1 35 7.4 45.4
09:35 1024 30.24 853 25.19 23.3 73.9 35 7.1 44.8
09:40 1024 30.24 853 25.19 23.7 74.6 33 6.5 43.7
09:45 1024 30.24 853 25.19 24.2 75.6 33 7.1 44.9
09:50 1023 30.21 853 25.19 24.4 75.8 33 7.2 45
09:55 1023 30.21 853 25.19 24.9 76.7 32 7.1 44.8
10:00 1023 30.21 853 25.19 24.9 76.8 32 7.2 45
10:05 1024 30.24 853 25.19 24.3 75.7 30 5.6 42.1
10:10 1024 30.24 853 25.19 24.8 76.6 31 6.6 43.9
10:15 1024 30.24 853 25.19 24.8 76.7 32 7.1 44.8
10:20 1024 30.24 853 25.19 25.4 77.7 31 7.1 44.8
10:25 1024 30.24 853 25.19 25.3 77.6 32 7.6 45.6
10:30 1024 30.24 853 25.19 25 77 31 6.8 44.3
10:35 1024 30.24 853 25.19 25.4 77.8 30 6.7 44
10:40 1024 30.24 853 25.19 25.9 78.7 28 6.3 43.3
10:45 1024 30.24 853 25.19 26.9 80.5 27 6.6 43.8
10:50 1023 30.21 853 25.19 27.3 81.1 27 6.8 44.2
10:55 1023 30.21 853 25.19 26.8 80.3 28 7.2 45
11:00 1023 30.21 853 25.19 27 80.7 26 6.4 43.6
11:05 1023 30.21 853 25.19 26.5 79.6 28 6.6 43.9
11:10 1023 30.21 852 25.16 26.1 79 27 6.1 43.1
11:15 1023 30.21 852 25.16 27 80.5 25 5.4 41.8
11:20 1023 30.21 852 25.16 28 82.4 23 5.3 41.5
11:25 1023 30.21 852 25.16 27.7 81.8 21 3.6 38.6
11:30 1023 30.21 852 25.16 27.5 81.5 21 3.2 37.8
11:35 1023 30.21 852 25.16 27.6 81.6 20 3.2 37.8
11:40 1023 30.21 852 25.16 27.6 81.6 20 3.2 37.8
11:45 1023 30.21 852 25.16 27.8 82 19 2.6 36.8
11:50 1023 30.21 852 25.16 28.4 83.2 18 1.9 35.5
11:55 1023 30.21 852 25.16 28.4 83.1 19 3 37.5
12:00 1023 30.21 852 25.16 28.5 83.3 18 2.5 36.5
12:05 1023 30.21 852 25.16 28.9 84 18 2.4 36.4
12:10 1023 30.21 852 25.16 28 82.5 18 1.7 35.1
12:15 1022 30.18 852 25.16 28.9 83.9 17 1.5 34.7
12:20 1022 30.18 852 25.16 29.5 85 16 1.7 35
12:25 1022 30.18 852 25.16 29.9 85.8 15 0.8 33.5
12:30 1022 30.18 852 25.16 30.2 86.3 15 0.9 33.6
12:35 1022 30.18 851 25.13 29.9 85.8 16 1.5 34.6
12:40 1022 30.18 851 25.13 30.1 86.1 16 1.6 34.9
12:45 1022 30.18 851 25.13 30.1 86.1 15 1.4 34.5
12:50 1022 30.18 851 25.13 30.8 87.4 15 1.6 34.9
12:55 1022 30.18 851 25.13 30.8 87.4 16 2.7 36.8
13:00 1022 30.18 851 25.13 30.1 86.1 17 3.1 37.5
13:05 1022 30.18 851 25.13 29.4 84.8 18 3 37.4
13:10 1022 30.18 851 25.13 28.9 84.1 19 3.2 37.7
13:15 1022 30.18 851 25.13 29.8 85.7 17 2.4 36.3
13:20 1022 30.18 851 25.13 30.4 86.8 15 1.7 35
13:25 1022 30.18 851 25.13 29.2 84.6 19 3.4 38.2
13:30 1022 30.18 851 25.13 29.2 84.5 17 2.3 36.2
13:35 1022 30.18 851 25.13 29.5 85.1 16 1.8 35.2
13:40 1021 30.15 851 25.13 30.3 86.5 17 2.6 36.7
13:45 1021 30.15 851 25.13 30.2 86.3 17 2.4 36.3
13:50 1021 30.15 851 25.13 30.2 86.4 15 1.4 34.4
13:55 1021 30.15 851 25.13 31 87.7 15 1.6 34.9
14:00 1021 30.15 851 25.13 31.2 88.1 16 2.5 36.5
14:05 1021 30.15 850 25.1 30.9 87.6 18 4.2 39.5
14:10 1021 30.15 850 25.1 29.7 85.5 18 2.8 37.1
14:15 1021 30.15 850 25.1 28.7 83.6 18 2.3 36.1
14:20 1021 30.15 850 25.1 29.2 84.5 16 1.3 34.3
14:25 1021 30.15 850 25.1 29.7 85.5 16 1.2 34.1
14:30 1021 30.15 850 25.1 29.8 85.7 15 1 33.9
14:35 1021 30.15 850 25.1 30.8 87.4 16 2.1 35.8
14:40 1021 30.15 850 25.1 30.5 86.9 16 2.5 36.5
14:45 1021 30.15 850 25.1 30.6 87.1 16 2.5 36.5
14:50 1021 30.15 850 25.1 29.7 85.5 16 1.9 35.4
14:55 1021 30.15 850 25.1 29.7 85.5 16 1.3 34.3
15:00 1021 30.15 850 25.1 29.7 85.4 17 2.2 36
15:05 1020 30.12 850 25.1 29.4 84.9 16 1 33.9
15:10 1020 30.12 850 25.1 29 84.3 15 0.4 32.7
15:15 1020 30.12 850 25.1 28.7 83.7 15 0.2 32.4
15:20 1020 30.12 850 25.1 29.1 84.4 16 0.7 33.3
15:25 1020 30.12 850 25.1 29.1 84.4 16 0.8 33.5
15:30 1020 30.12 849 25.07 29.1 84.3 15 0 32
15:35 1020 30.12 849 25.07 30.2 86.3 14 0.2 32.3
15:40 1020 30.12 849 25.07 30.1 86.2 15 0.9 33.7
15:45 1020 30.12 849 25.07 29.5 85 15 0.2 32.3
15:50 1020 30.12 849 25.07 29.1 84.4 15 0.1 32.2
15:55 1020 30.12 849 25.07 29.2 84.6 14 -0.2 31.6
16:00 1020 30.12 849 25.07 29.4 84.9 15 0.4 32.8
16:05 1020 30.12 849 25.07 29.3 84.7 15 0.4 32.8
16:10 1020 30.12 849 25.07 29.2 84.5 15 0.4 32.7
16:15 1020 30.12 849 25.07 29.1 84.4 15 0.5 32.9
16:20 1020 30.12 849 25.07 29.4 84.8 16 0.9 33.6
16:25 1020 30.12 849 25.07 29 84.2 17 1.4 34.6
16:30 1020 30.12 849 25.07 29.1 84.4 17 2.1 35.8
16:35 1020 30.12 849 25.07 28.9 84.1 18 2.8 37
16:40 1020 30.12 849 25.07 28.6 83.4 19 2.8 37
16:45 1020 30.12 849 25.07 28.3 82.9 19 3.1 37.6
16:50 1020 30.12 849 25.07 28.1 82.5 20 3 37.4
16:55 1020 30.12 849 25.07 27.8 82.1 20 3.3 37.9
17:00 1020 30.12 849 25.07 27.6 81.6 20 2.8 37.1
17:05 1020 30.12 849 25.07 27.5 81.4 20 2.8 37.1
17:10 1020 30.12 849 25.07 27.3 81.2 21 3.1 37.5
17:15 1020 30.12 849 25.07 27.2 81 21 3.2 37.8
17:20 1020 30.12 849 25.07 27.2 80.9 20 2.9 37.2
17:25 1020 30.12 849 25.07 27.2 80.9 21 3.6 38.4
17:30 1020 30.12 849 25.07 27.1 80.8 21 3.1 37.6
17:35 1020 30.12 849 25.07 27.1 80.7 22 3.6 38.6
17:40 1020 30.12 849 25.07 26.9 80.3 22 3.5 38.4
17:45 1020 30.12 849 25.07 26.8 80.2 22 3.6 38.5
17:50 1020 30.12 849 25.07 26.7 80.1 23 4.1 39.3
17:55 1020 30.12 849 25.07 26.5 79.7 24 4.3 39.8
18:00 1020 30.12 849 25.07 26.3 79.3 24 4.6 40.2
18:05 1020 30.12 849 25.07 26.1 79 24 4.5 40.2
18:10 1020 30.12 849 25.07 26 78.8 25 4.6 40.3
18:15 1020 30.12 849 25.07 25.9 78.5 25 4.8 40.6
18:20 1020 30.12 849 25.07 25.8 78.4 25 4.7 40.5
18:25 1020 30.12 849 25.07 25.7 78.3 26 4.9 40.8
18:30 1020 30.12 849 25.07 25.6 78.2 26 5.1 41.2
18:35 1020 30.12 849 25.07 25.5 77.9 26 5 40.9
18:40 1020 30.12 849 25.07 25.4 77.7 26 5 40.9
18:45 1020 30.12 849 25.07 25.3 77.6 26 4.8 40.7
18:50 1020 30.12 849 25.07 25.3 77.5 27 4.9 40.9
18:55 1020 30.12 849 25.07 25.3 77.5 26 4.5 40.1
19:00 1020 30.12 849 25.07 25.4 77.6 26 4.8 40.7
19:05 1020 30.12 849 25.07 25.4 77.8 27 5.2 41.3
19:10 1020 30.12 849 25.07 25.5 77.9 25 4.3 39.7
19:15 1020 30.12 850 25.1 25.5 77.9 26 5.1 41.1
19:20 1020 30.12 850 25.1 25.5 77.8 24 3.5 38.3
19:25 1021 30.15 850 25.1 25.4 77.6 24 3.7 38.6
19:30 1021 30.15 850 25.1 25 77 25 3.7 38.7
19:35 1021 30.15 850 25.1 24.5 76.1 26 4 39.1
19:40 1021 30.15 850 25.1 23.9 75 28 4.3 39.7
19:45 1021 30.15 850 25.1 23.5 74.3 29 4.9 40.8
19:50 1021 30.15 850 25.1 23.1 73.6 31 5.1 41.2
19:55 1021 30.15 850 25.1 22.7 72.9 32 5.4 41.8
20:00 1021 30.15 850 25.1 22.3 72.2 33 5.5 41.9
20:05 1021 30.15 850 25.1 22.2 71.9 33 5.4 41.7
20:10 1021 30.15 850 25.1 22 71.6 33 5.3 41.6
20:15 1021 30.15 850 25.1 21.7 71 35 5.9 42.7
20:20 1022 30.18 851 25.13 21.3 70.3 36 5.7 42.3
20:25 1022 30.18 851 25.13 21.2 70.2 37 6.1 43.1
20:30 1022 30.18 851 25.13 21 69.8 36 5.6 42.1
20:35 1022 30.18 851 25.13 21.3 70.3 35 5.2 41.4
20:40 1022 30.18 851 25.13 21.2 70.2 36 5.6 42
20:45 1022 30.18 851 25.13 21 69.7 36 5.4 41.6
20:50 1022 30.18 851 25.13 20.9 69.6 36 5.3 41.5
20:55 1022 30.18 851 25.13 20.8 69.5 35 4.9 40.9
21:00 1022 30.18 851 25.13 20.8 69.4 36 5.4 41.8
21:05 1022 30.18 851 25.13 20.4 68.7 38 5.7 42.3
21:10 1022 30.18 851 25.13 19.9 67.8 42 6.8 44.2
21:15 1022 30.18 851 25.13 19.6 67.2 42 6.4 43.4
21:20 1022 30.18 851 25.13 19.5 67.1 42 6.4 43.5
21:25 1022 30.18 851 25.13 19.2 66.6 42 6.2 43.2
21:30 1022 30.18 851 25.13 19.4 66.8 43 6.7 44.1
21:35 1022 30.18 851 25.13 19.8 67.7 40 5.9 42.7
21:40 1022 30.18 851 25.13 19.6 67.3 41 6.3 43.4
21:45 1022 30.18 851 25.13 19.5 67 43 6.7 44
21:50 1022 30.18 851 25.13 19.2 66.6 45 7 44.5
21:55 1022 30.18 851 25.13 18.9 66.1 45 6.8 44.3
22:00 1022 30.18 851 25.13 18.9 65.9 44 6.4 43.5
22:05 1022 30.18 851 25.13 19 66.1 42 6 42.8
22:10 1022 30.18 851 25.13 18.9 66.1 43 6.2 43.2
22:15 1022 30.18 851 25.13 18.6 65.5 43 5.8 42.5
22:20 1022 30.18 851 25.13 18.6 65.5 44 6.2 43.2
22:25 1022 30.18 851 25.13 18.3 64.9 45 6.3 43.4
22:30 1022 30.18 851 25.13 18 64.4 48 7.1 44.7
22:35 1022 30.18 851 25.13 17.6 63.7 49 7 44.6
22:40 1022 30.18 851 25.13 17.5 63.5 48 6.4 43.6
22:45 1022 30.18 851 25.13 17.5 63.5 48 6.5 43.6
22:50 1022 30.18 851 25.13 17.6 63.6 47 6.2 43.1
22:55 1022 30.18 851 25.13 17.8 64 46 6.2 43.1
23:00 1022 30.18 851 25.13 18 64.4 45 6 42.7
23:05 1022 30.18 851 25.13 17.9 64.2 45 6 42.7
23:10 1022 30.18 851 25.13 17.8 64.1 46 6 42.8
23:15 1022 30.18 851 25.13 17.8 64 45 5.8 42.4
23:20 1022 30.18 851 25.13 17.8 64 45 5.7 42.3
23:25 1022 30.18 851 25.13 17.7 63.9 46 5.9 42.7
23:30 1022 30.18 851 25.13 17.5 63.5 46 5.8 42.5
23:35 1022 30.18 851 25.13 17.2 63 47 6 42.9
23:40 1022 30.18 851 25.13 16.9 62.4 48 5.9 42.6
23:45 1022 30.18 851 25.13 16.9 62.4 48 5.8 42.4
23:50 1022 30.18 851 25.13 17 62.6 47 5.6 42.1
23:55 1022 30.18 851 25.13 17 62.6 48 5.9 42.6
24:00 1022 30.18 851 25.13 16.5 61.7 50 6 42.8